Chuckey, Tennessee
Current Conditions -  °F | °C
As of 6:53 PM on Thursday 25 Dec 2014 (Local Time) from KTRI Reporting Station
Clear Clear  
Wind Chill: 31°   Ceiling: Unl
Heat Index: 36°   Visibility: 10mi
Dew Point: 30°   Wind: 6mph
Humidity: 79%   Direction: 220°SW
Pressure: 30.26"   Gusts: NA
Location:  36.22°N, 82.69°W
Report Text: KTRI 252353Z 22005KT 10SM CLR 02/M01 A3026 RMK AO2 PRESRR SLP245 T00221011 10083 20022 53035
Loading
Personal Weather Stations






























Interactive Weather Map New forecast layout! Learn more

10-Day Weather Forecast

Advertisements
Track Severe Weather on mobile